Time;durP1;ratioP1;P1;durP2;ratioP2;P2;SDS_P1;SDS_P2;PMS_P1;PMS_P2;Temp;Humidity;BMP_temperature;BMP_pressure;BME280_temperature;BME280_humidity;BME280_pressure;Samples;Min_cycle;Max_cycle;Signal;HPM_P1;HPM_P2
2023/07/10 00:00:52;;;;;;;4.47;3.15;;;;;;;;;;5029177;28;21013;-69
2023/07/10 00:03:19;;;;;;;4.35;3.08;;;;;;;;;;5027240;28;20049;-69
2023/07/10 00:05:45;;;;;;;4.80;3.20;;;;;;;;;;5028945;28;20034;-69
2023/07/10 00:08:10;;;;;;;6.15;3.13;;;;;;;;;;5028787;28;20092;-70
2023/07/10 00:10:36;;;;;;;3.67;3.03;;;;;;;;;;5026756;28;20148;-69
2023/07/10 00:13:02;;;;;;;4.65;2.92;;;;;;;;;;5026254;28;20045;-69
2023/07/10 00:15:28;;;;;;;5.20;3.20;;;;;;;;;;5024146;28;20055;-69
2023/07/10 00:17:53;;;;;;;4.65;3.20;;;;;;;;;;5020698;28;20045;-69
2023/07/10 00:20:26;;;;;;;4.63;3.47;;;;;;;;;;5021911;28;20099;-70
2023/07/10 00:22:51;;;;;;;8.77;3.35;;;;;;;;;;5021590;28;20045;-70
2023/07/10 00:25:17;;;;;;;6.75;2.75;;;;;;;;;;5022217;28;20045;-70
2023/07/10 00:27:48;;;;;;;3.47;2.72;;;;;;;;;;5021753;28;20057;-70
2023/07/10 00:30:22;;;;;;;5.10;2.75;;;;;;;;;;5022007;28;20107;-70
2023/07/10 00:32:52;;;;;;;6.15;3.20;;;;;;;;;;5027456;28;20065;-70
2023/07/10 00:35:24;;;;;;;7.72;3.08;;;;;;;;;;5028672;28;20128;-70
2023/07/10 00:38:02;;;;;;;5.07;3.40;;;;;;;;;;5020549;28;20095;-70
2023/07/10 00:40:29;;;;;;;5.32;3.33;;;;;;;;;;5024598;28;20053;-70
2023/07/10 00:43:10;;;;;;;7.43;3.53;;;;;;;;;;5020528;28;20410;-70
2023/07/10 00:45:35;;;;;;;7.68;4.13;;;;;;;;;;5019823;28;20049;-70
2023/07/10 00:48:34;;;;;;;9.77;3.70;;;;;;;;;;5020232;28;20068;-70
2023/07/10 00:51:08;;;;;;;6.65;4.00;;;;;;;;;;5019599;28;20057;-70
2023/07/10 00:53:37;;;;;;;7.15;3.22;;;;;;;;;;5006116;28;20044;-70
2023/07/10 00:56:05;;;;;;;5.45;3.78;;;;;;;;;;5024820;28;20048;-70
2023/07/10 00:58:37;;;;;;;5.93;3.15;;;;;;;;;;5003552;28;20052;-70
2023/07/10 01:01:08;;;;;;;8.65;3.63;;;;;;;;;;5002862;28;20461;-70
2023/07/10 01:03:36;;;;;;;5.25;3.50;;;;;;;;;;5021410;28;20144;-70
2023/07/10 01:06:22;;;;;;;6.03;3.33;;;;;;;;;;5023873;28;20053;-71
2023/07/10 01:08:52;;;;;;;4.85;3.33;;;;;;;;;;5019963;28;20082;-71
2023/07/10 01:11:19;;;;;;;8.00;4.10;;;;;;;;;;5019431;28;20057;-71
2023/07/10 01:13:47;;;;;;;7.15;3.88;;;;;;;;;;5021565;28;20045;-71
2023/07/10 01:16:13;;;;;;;6.63;3.85;;;;;;;;;;5027630;28;20423;-69
2023/07/10 01:18:40;;;;;;;8.25;3.90;;;;;;;;;;5019627;28;20528;-69
2023/07/10 01:21:13;;;;;;;8.02;3.80;;;;;;;;;;5035745;28;20136;-69
2023/07/10 01:23:39;;;;;;;6.45;3.88;;;;;;;;;;5025731;28;20507;-69
2023/07/10 01:26:05;;;;;;;8.40;3.28;;;;;;;;;;5018477;28;20056;-69
2023/07/10 01:28:35;;;;;;;3.75;2.92;;;;;;;;;;5025514;28;20069;-69
2023/07/10 01:31:05;;;;;;;8.95;3.55;;;;;;;;;;5021467;28;20049;-70
2023/07/10 01:33:42;;;;;;;6.13;3.33;;;;;;;;;;5009200;28;20045;-69
2023/07/10 01:36:10;;;;;;;3.67;3.22;;;;;;;;;;5021019;28;20041;-69
2023/07/10 01:38:44;;;;;;;6.95;3.47;;;;;;;;;;5020557;28;20056;-69
2023/07/10 01:41:19;;;;;;;5.90;3.35;;;;;;;;;;5020144;28;20540;-68
2023/07/10 01:43:44;;;;;;;4.57;3.45;;;;;;;;;;5019671;28;20045;-69
2023/07/10 01:46:19;;;;;;;3.92;2.95;;;;;;;;;;5024125;28;20913;-68
2023/07/10 01:48:45;;;;;;;4.78;3.50;;;;;;;;;;5035464;28;20053;-68
2023/07/10 01:51:10;;;;;;;4.03;3.38;;;;;;;;;;5027631;28;20056;-69
2023/07/10 01:53:36;;;;;;;4.03;2.80;;;;;;;;;;5022668;28;20050;-68
2023/07/10 01:56:02;;;;;;;6.57;3.63;;;;;;;;;;5019949;28;20554;-68
2023/07/10 01:58:27;;;;;;;4.97;3.60;;;;;;;;;;5003226;28;20053;-69
2023/07/10 02:00:53;;;;;;;4.82;3.47;;;;;;;;;;5034108;28;20046;-69
2023/07/10 02:03:18;;;;;;;5.50;3.30;;;;;;;;;;5034977;28;20052;-69
2023/07/10 02:05:44;;;;;;;7.30;3.42;;;;;;;;;;5035337;28;20099;-69
2023/07/10 02:08:09;;;;;;;5.75;3.28;;;;;;;;;;5021073;28;20149;-69
2023/07/10 02:10:35;;;;;;;10.30;4.95;;;;;;;;;;5026487;28;20056;-69
2023/07/10 02:13:00;;;;;;;7.80;3.33;;;;;;;;;;5020032;28;20049;-70
2023/07/10 02:15:26;;;;;;;8.90;3.88;;;;;;;;;;5035107;28;20041;-69
2023/07/10 02:17:51;;;;;;;8.13;3.42;;;;;;;;;;5023431;28;20110;-70
2023/07/10 02:20:17;;;;;;;6.60;3.60;;;;;;;;;;5029479;28;20041;-69
2023/07/10 02:22:42;;;;;;;7.68;4.10;;;;;;;;;;5034869;28;20122;-69
2023/07/10 02:25:08;;;;;;;5.32;3.25;;;;;;;;;;5019696;28;20593;-69
2023/07/10 02:27:33;;;;;;;5.55;3.67;;;;;;;;;;5020006;28;20521;-68
2023/07/10 02:29:59;;;;;;;7.50;3.72;;;;;;;;;;5026488;28;20057;-68
2023/07/10 02:32:24;;;;;;;4.45;3.67;;;;;;;;;;5034170;28;20049;-69
2023/07/10 02:34:50;;;;;;;6.05;3.97;;;;;;;;;;5020457;28;20152;-69
2023/07/10 02:37:15;;;;;;;7.57;3.50;;;;;;;;;;5027124;28;20053;-69
2023/07/10 02:39:40;;;;;;;7.05;3.72;;;;;;;;;;5008875;28;20156;-69
2023/07/10 02:42:06;;;;;;;6.68;4.03;;;;;;;;;;5020158;28;20092;-69
2023/07/10 02:44:31;;;;;;;6.15;3.63;;;;;;;;;;5020114;28;20041;-69
2023/07/10 02:46:57;;;;;;;7.50;4.22;;;;;;;;;;5029509;28;20988;-68
2023/07/10 02:49:22;;;;;;;6.15;3.75;;;;;;;;;;5034672;28;20056;-68
2023/07/10 02:51:48;;;;;;;7.65;3.92;;;;;;;;;;5027089;28;20045;-68
2023/07/10 02:54:14;;;;;;;10.73;4.35;;;;;;;;;;5015179;28;20045;-69
2023/07/10 02:56:40;;;;;;;10.07;4.00;;;;;;;;;;5034789;28;20041;-70
2023/07/10 02:59:05;;;;;;;7.82;3.88;;;;;;;;;;5034037;28;20045;-70
2023/07/10 03:01:31;;;;;;;4.80;3.42;;;;;;;;;;5018912;28;20042;-70
2023/07/10 03:03:56;;;;;;;7.55;4.05;;;;;;;;;;5022533;28;20418;-70
2023/07/10 03:06:23;;;;;;;5.85;3.78;;;;;;;;;;5029044;28;20044;-71
2023/07/10 03:08:49;;;;;;;10.32;4.10;;;;;;;;;;5018302;28;20049;-71
2023/07/10 03:11:17;;;;;;;4.95;3.80;;;;;;;;;;5023446;28;20128;-71
2023/07/10 03:13:43;;;;;;;7.53;3.90;;;;;;;;;;5019076;28;20073;-71
2023/07/10 03:16:13;;;;;;;5.88;3.60;;;;;;;;;;5034524;28;20045;-70
2023/07/10 03:18:39;;;;;;;4.90;3.42;;;;;;;;;;5015475;28;20399;-70
2023/07/10 03:21:05;;;;;;;6.45;4.40;;;;;;;;;;5018507;28;20619;-70
2023/07/10 03:23:31;;;;;;;7.40;3.58;;;;;;;;;;5025962;28;21098;-70
2023/07/10 03:25:57;;;;;;;9.20;3.75;;;;;;;;;;5023299;28;20120;-70
2023/07/10 03:28:23;;;;;;;5.78;3.58;;;;;;;;;;5023201;28;20069;-69
2023/07/10 03:30:49;;;;;;;8.48;4.55;;;;;;;;;;5022908;28;20060;-70
2023/07/10 03:33:16;;;;;;;6.65;4.00;;;;;;;;;;5030569;28;20694;-70
2023/07/10 03:35:42;;;;;;;6.13;3.90;;;;;;;;;;5029198;28;20084;-70
2023/07/10 03:38:08;;;;;;;5.97;3.67;;;;;;;;;;5026617;28;20081;-70
2023/07/10 03:40:34;;;;;;;6.28;3.75;;;;;;;;;;5022829;28;20483;-70
2023/07/10 03:42:59;;;;;;;5.10;3.70;;;;;;;;;;5010096;28;20060;-71
2023/07/10 03:45:25;;;;;;;5.97;3.88;;;;;;;;;;5021681;28;20053;-70
2023/07/10 03:47:50;;;;;;;5.03;3.65;;;;;;;;;;5022719;28;20053;-71
2023/07/10 03:50:17;;;;;;;10.82;4.10;;;;;;;;;;5022674;28;20132;-68
2023/07/10 03:52:43;;;;;;;6.10;3.70;;;;;;;;;;5021367;28;20111;-68
2023/07/10 03:55:08;;;;;;;6.90;3.42;;;;;;;;;;5022460;28;20088;-68
2023/07/10 03:57:34;;;;;;;5.97;3.70;;;;;;;;;;5031626;28;20056;-68
2023/07/10 03:59:59;;;;;;;9.30;4.57;;;;;;;;;;5030277;28;20084;-68
2023/07/10 04:02:25;;;;;;;8.07;3.78;;;;;;;;;;5032058;28;20086;-71
2023/07/10 04:04:50;;;;;;;4.57;3.78;;;;;;;;;;5022740;28;20106;-71
2023/07/10 04:07:17;;;;;;;12.02;4.30;;;;;;;;;;5022543;28;20132;-71
2023/07/10 04:09:42;;;;;;;5.50;4.05;;;;;;;;;;5020904;28;20144;-70
2023/07/10 04:12:08;;;;;;;5.05;3.72;;;;;;;;;;5022390;28;20471;-70
2023/07/10 04:14:36;;;;;;;5.28;3.83;;;;;;;;;;5022224;28;20145;-70
2023/07/10 04:17:03;;;;;;;13.48;4.50;;;;;;;;;;5021615;28;20042;-70
2023/07/10 04:19:29;;;;;;;6.97;4.00;;;;;;;;;;5027997;28;20045;-70
2023/07/10 04:21:54;;;;;;;7.38;3.83;;;;;;;;;;5022017;28;20076;-70
2023/07/10 04:24:20;;;;;;;8.68;4.00;;;;;;;;;;5022218;28;20049;-70
2023/07/10 04:26:46;;;;;;;5.63;4.15;;;;;;;;;;5022168;28;20596;-70
2023/07/10 04:29:12;;;;;;;7.00;3.92;;;;;;;;;;5023491;28;20520;-71
2023/07/10 04:31:37;;;;;;;5.07;3.47;;;;;;;;;;5031216;28;20046;-70
2023/07/10 04:34:03;;;;;;;7.68;3.90;;;;;;;;;;5028068;28;20060;-70
2023/07/10 04:36:28;;;;;;;6.43;4.13;;;;;;;;;;5031844;28;20649;-70
2023/07/10 04:38:54;;;;;;;5.40;3.95;;;;;;;;;;5030873;28;20041;-71
2023/07/10 04:41:22;;;;;;;5.60;4.00;;;;;;;;;;5028542;28;20073;-71
2023/07/10 04:43:48;;;;;;;7.20;4.03;;;;;;;;;;5027156;28;20037;-70
2023/07/10 04:46:15;;;;;;;5.45;4.00;;;;;;;;;;5026055;28;20123;-70
2023/07/10 04:48:42;;;;;;;5.60;4.15;;;;;;;;;;5044278;28;20053;-70
2023/07/10 04:51:10;;;;;;;7.43;3.80;;;;;;;;;;5026946;28;20046;-70
2023/07/10 04:53:35;;;;;;;6.50;3.78;;;;;;;;;;5005491;28;20048;-71
2023/07/10 04:56:04;;;;;;;7.30;4.13;;;;;;;;;;5031233;28;20038;-70
2023/07/10 04:58:43;;;;;;;8.25;3.85;;;;;;;;;;5032073;28;20502;-71
2023/07/10 05:01:09;;;;;;;9.20;3.75;;;;;;;;;;5005913;28;20077;-73
2023/07/10 05:03:34;;;;;;;7.50;3.67;;;;;;;;;;5022048;28;20134;-71
2023/07/10 05:06:00;;;;;;;4.72;3.30;;;;;;;;;;5023342;28;20124;-70
2023/07/10 05:08:27;;;;;;;5.32;3.65;;;;;;;;;;5029457;28;20052;-70
2023/07/10 05:10:56;;;;;;;4.97;3.67;;;;;;;;;;5026593;28;20414;-72
2023/07/10 05:13:25;;;;;;;4.68;3.58;;;;;;;;;;5021882;28;20041;-71
2023/07/10 05:15:51;;;;;;;5.68;3.70;;;;;;;;;;5028130;28;20112;-71
2023/07/10 05:18:16;;;;;;;4.68;3.38;;;;;;;;;;5030454;28;20045;-70
2023/07/10 05:20:46;;;;;;;6.28;3.55;;;;;;;;;;5032291;28;20044;-71
2023/07/10 05:23:12;;;;;;;4.55;3.33;;;;;;;;;;5029036;28;20613;-72
2023/07/10 05:25:38;;;;;;;5.05;3.17;;;;;;;;;;5024659;28;20079;-72
2023/07/10 05:28:04;;;;;;;8.98;3.83;;;;;;;;;;5019189;28;20111;-70
2023/07/10 05:30:30;;;;;;;5.63;3.17;;;;;;;;;;5030520;28;20071;-71
2023/07/10 05:32:55;;;;;;;7.30;3.65;;;;;;;;;;5025904;28;20091;-71
2023/07/10 05:35:21;;;;;;;10.48;3.33;;;;;;;;;;5030170;28;20458;-71
2023/07/10 05:37:48;;;;;;;5.80;3.70;;;;;;;;;;5032583;28;20045;-71
2023/07/10 05:40:14;;;;;;;5.80;3.47;;;;;;;;;;5024503;28;20049;-71
2023/07/10 05:42:39;;;;;;;3.65;3.20;;;;;;;;;;5020731;28;20132;-70
2023/07/10 05:45:06;;;;;;;4.60;3.08;;;;;;;;;;5017302;28;20544;-72
2023/07/10 05:47:31;;;;;;;8.45;3.40;;;;;;;;;;5020065;28;20057;-71
2023/07/10 05:49:57;;;;;;;10.30;3.22;;;;;;;;;;5023151;28;20045;-71
2023/07/10 05:52:22;;;;;;;5.97;3.47;;;;;;;;;;5020229;28;20579;-72
2023/07/10 05:54:48;;;;;;;6.38;3.05;;;;;;;;;;5019793;28;20045;-71
2023/07/10 05:57:13;;;;;;;5.72;3.28;;;;;;;;;;5018005;28;20056;-71
2023/07/10 05:59:40;;;;;;;9.77;3.83;;;;;;;;;;5018893;28;20057;-70
2023/07/10 06:02:10;;;;;;;5.80;3.20;;;;;;;;;;5020316;28;20046;-72
2023/07/10 06:04:35;;;;;;;4.07;3.15;;;;;;;;;;5020458;28;20044;-71
2023/07/10 06:07:01;;;;;;;7.40;3.20;;;;;;;;;;5019521;28;20037;-71
2023/07/10 06:09:26;;;;;;;4.13;3.00;;;;;;;;;;5013292;28;20045;-70
2023/07/10 06:11:51;;;;;;;8.55;3.40;;;;;;;;;;5026796;28;20068;-70
2023/07/10 06:14:17;;;;;;;4.75;3.40;;;;;;;;;;5020358;28;20041;-71
2023/07/10 06:16:42;;;;;;;8.85;3.15;;;;;;;;;;5020319;28;20402;-70
2023/07/10 06:19:08;;;;;;;10.10;3.25;;;;;;;;;;5033741;28;20053;-70
2023/07/10 06:21:33;;;;;;;5.72;3.05;;;;;;;;;;5028116;28;20103;-69
2023/07/10 06:23:58;;;;;;;4.32;2.80;;;;;;;;;;5020388;28;20060;-69
2023/07/10 06:26:24;;;;;;;6.60;3.28;;;;;;;;;;5017492;28;20049;-69
2023/07/10 06:28:49;;;;;;;4.68;2.97;;;;;;;;;;5022615;28;20103;-72
2023/07/10 06:31:15;;;;;;;3.95;3.00;;;;;;;;;;5023231;28;20128;-70
2023/07/10 06:33:40;;;;;;;3.60;3.03;;;;;;;;;;5029239;28;20042;-70
2023/07/10 06:36:07;;;;;;;4.82;2.80;;;;;;;;;;5019682;28;20506;-70
2023/07/10 06:38:33;;;;;;;4.78;3.33;;;;;;;;;;5020280;28;20045;-70
2023/07/10 06:40:58;;;;;;;7.85;3.22;;;;;;;;;;5019113;28;20356;-75
2023/07/10 06:43:24;;;;;;;5.18;2.72;;;;;;;;;;5020141;28;21102;-70
2023/07/10 06:45:50;;;;;;;6.78;3.38;;;;;;;;;;5025224;28;20049;-71
2023/07/10 06:48:17;;;;;;;8.45;3.70;;;;;;;;;;5019464;28;20057;-71
2023/07/10 06:50:49;;;;;;;6.70;3.10;;;;;;;;;;5020093;28;20085;-72
2023/07/10 06:53:15;;;;;;;6.55;3.38;;;;;;;;;;5022477;28;20061;-69
2023/07/10 06:55:44;;;;;;;7.75;3.63;;;;;;;;;;5018286;28;20045;-71
2023/07/10 06:58:13;;;;;;;5.15;3.30;;;;;;;;;;5023489;28;20619;-71
2023/07/10 07:00:39;;;;;;;5.47;2.88;;;;;;;;;;5023618;28;20856;-72
2023/07/10 07:03:05;;;;;;;4.80;2.97;;;;;;;;;;5023687;28;20053;-68
2023/07/10 07:05:30;;;;;;;11.85;3.00;;;;;;;;;;5030603;28;20052;-69
2023/07/10 07:07:56;;;;;;;4.47;3.08;;;;;;;;;;5023119;28;20049;-69
2023/07/10 07:10:21;;;;;;;3.58;3.08;;;;;;;;;;5023260;28;20059;-70
2023/07/10 07:12:46;;;;;;;8.52;3.25;;;;;;;;;;5026507;28;20045;-70
2023/07/10 07:15:13;;;;;;;4.63;2.72;;;;;;;;;;5035799;28;20064;-69
2023/07/10 07:17:39;;;;;;;8.25;2.90;;;;;;;;;;5026428;28;20123;-69
2023/07/10 07:20:06;;;;;;;6.70;2.78;;;;;;;;;;5023457;28;20418;-71
2023/07/10 07:22:31;;;;;;;4.15;2.85;;;;;;;;;;5023073;28;20060;-68
2023/07/10 07:24:57;;;;;;;3.08;2.78;;;;;;;;;;5021403;28;20060;-69
2023/07/10 07:27:23;;;;;;;5.97;2.78;;;;;;;;;;5028281;28;20060;-70
2023/07/10 07:29:51;;;;;;;4.75;2.65;;;;;;;;;;5023091;28;20049;-70
2023/07/10 07:32:17;;;;;;;5.78;3.00;;;;;;;;;;5023069;28;20099;-71
2023/07/10 07:34:44;;;;;;;4.80;2.65;;;;;;;;;;5023158;28;20045;-71
2023/07/10 07:37:10;;;;;;;2.85;2.63;;;;;;;;;;5028557;28;20040;-72
2023/07/10 07:39:35;;;;;;;4.57;2.70;;;;;;;;;;5031318;28;20851;-70
2023/07/10 07:42:01;;;;;;;3.55;2.90;;;;;;;;;;5021844;28;20049;-72
2023/07/10 07:44:27;;;;;;;6.85;2.88;;;;;;;;;;5023042;28;20132;-70
2023/07/10 07:46:53;;;;;;;4.82;2.65;;;;;;;;;;5022977;28;20148;-70
2023/07/10 07:49:18;;;;;;;3.25;2.65;;;;;;;;;;5028072;28;20823;-70
2023/07/10 07:51:44;;;;;;;7.15;2.53;;;;;;;;;;5023732;28;20103;-70
2023/07/10 07:54:13;;;;;;;3.70;2.58;;;;;;;;;;5035011;28;20056;-71
2023/07/10 07:56:39;;;;;;;5.53;2.67;;;;;;;;;;5024892;28;20878;-71
2023/07/10 07:59:05;;;;;;;3.50;2.58;;;;;;;;;;5020970;28;20046;-71
2023/07/10 08:01:30;;;;;;;7.78;2.53;;;;;;;;;;5031034;28;20068;-71
2023/07/10 08:03:56;;;;;;;3.90;2.60;;;;;;;;;;5032614;28;20133;-70
2023/07/10 08:06:22;;;;;;;4.72;2.70;;;;;;;;;;5031263;28;20041;-72
2023/07/10 08:08:47;;;;;;;3.85;2.40;;;;;;;;;;5030094;28;20053;-71
2023/07/10 08:11:15;;;;;;;3.08;2.45;;;;;;;;;;5011893;28;20395;-72
2023/07/10 08:13:40;;;;;;;4.95;2.92;;;;;;;;;;5025188;28;20049;-71
2023/07/10 08:16:06;;;;;;;3.17;2.45;;;;;;;;;;5035828;28;20513;-71
2023/07/10 08:18:31;;;;;;;4.63;2.70;;;;;;;;;;5037149;28;20077;-71
2023/07/10 08:21:01;;;;;;;5.93;2.90;;;;;;;;;;5031058;28;20049;-71
2023/07/10 08:23:26;;;;;;;4.65;2.78;;;;;;;;;;5022140;28;20041;-71
2023/07/10 08:25:52;;;;;;;3.63;2.20;;;;;;;;;;5022321;28;20620;-72
2023/07/10 08:28:17;;;;;;;4.78;2.47;;;;;;;;;;5021913;28;20045;-70
2023/07/10 08:30:44;;;;;;;6.85;2.80;;;;;;;;;;5032498;28;20060;-70
2023/07/10 08:33:10;;;;;;;5.15;2.60;;;;;;;;;;5020438;28;20064;-72
2023/07/10 08:35:36;;;;;;;4.63;2.30;;;;;;;;;;5021638;28;21148;-72
2023/07/10 08:38:02;;;;;;;3.90;2.45;;;;;;;;;;5020407;28;20057;-71
2023/07/10 08:40:32;;;;;;;8.32;2.90;;;;;;;;;;5021834;28;20042;-70
2023/07/10 08:43:01;;;;;;;3.10;2.80;;;;;;;;;;5020706;28;20071;-72
2023/07/10 08:45:37;;;;;;;4.30;2.70;;;;;;;;;;5027491;28;20103;-70
2023/07/10 08:48:29;;;;;;;6.35;2.50;;;;;;;;;;5021739;28;20540;-70
2023/07/10 08:51:00;;;;;;;3.08;2.40;;;;;;;;;;5019547;28;20061;-75
2023/07/10 08:53:31;;;;;;;7.85;2.97;;;;;;;;;;5021842;28;20980;-71
2023/07/10 08:56:02;;;;;;;8.68;3.05;;;;;;;;;;5027970;28;20048;-72
2023/07/10 08:58:33;;;;;;;7.93;2.85;;;;;;;;;;5019465;28;21028;-71
2023/07/10 09:01:08;;;;;;;5.50;2.95;;;;;;;;;;5021022;28;20180;-71
2023/07/10 09:03:55;;;;;;;3.72;2.70;;;;;;;;;;5021226;28;20064;-69
2023/07/10 09:06:30;;;;;;;6.65;2.92;;;;;;;;;;5020719;28;20056;-71
2023/07/10 09:08:56;;;;;;;10.20;3.55;;;;;;;;;;5018856;28;20045;-71
2023/07/10 09:11:23;;;;;;;6.28;3.28;;;;;;;;;;5021560;28;20042;-71
2023/07/10 09:14:06;;;;;;;7.10;3.45;;;;;;;;;;4997092;28;20052;-70
2023/07/10 09:16:31;;;;;;;7.25;3.10;;;;;;;;;;5022289;28;20060;-70
2023/07/10 09:19:05;;;;;;;3.25;2.80;;;;;;;;;;5020288;28;20063;-69
2023/07/10 09:21:39;;;;;;;8.07;2.92;;;;;;;;;;5036100;28;20160;-70
2023/07/10 09:24:17;;;;;;;5.72;2.88;;;;;;;;;;5028899;28;20045;-70
2023/07/10 09:26:42;;;;;;;6.70;3.17;;;;;;;;;;5021247;28;20138;-71
2023/07/10 09:29:10;;;;;;;5.03;3.00;;;;;;;;;;5025620;28;20508;-70
2023/07/10 09:31:51;;;;;;;5.95;2.92;;;;;;;;;;5021555;28;20045;-70
2023/07/10 09:34:21;;;;;;;7.85;2.75;;;;;;;;;;5021296;28;20096;-69
2023/07/10 09:36:51;;;;;;;5.32;2.85;;;;;;;;;;5020737;28;20048;-70
2023/07/10 09:39:17;;;;;;;4.60;2.67;;;;;;;;;;5020327;28;20071;-71
2023/07/10 09:41:44;;;;;;;5.47;2.85;;;;;;;;;;5018878;28;20420;-71
2023/07/10 09:44:20;;;;;;;5.47;2.65;;;;;;;;;;5020943;28;20041;-70
2023/07/10 09:46:46;;;;;;;3.90;2.80;;;;;;;;;;5035202;28;20050;-70
2023/07/10 09:49:15;;;;;;;5.35;2.92;;;;;;;;;;5020293;28;20045;-70
2023/07/10 09:52:00;;;;;;;9.60;2.70;;;;;;;;;;5020318;28;20774;-71
2023/07/10 09:54:35;;;;;;;4.50;2.78;;;;;;;;;;5020740;28;20479;-73
2023/07/10 09:57:03;;;;;;;5.40;3.15;;;;;;;;;;5023125;28;20068;-72
2023/07/10 09:59:31;;;;;;;6.10;2.70;;;;;;;;;;5020631;28;20054;-71
2023/07/10 10:02:14;;;;;;;5.75;3.08;;;;;;;;;;5029691;28;20056;-72
2023/07/10 10:04:41;;;;;;;6.25;2.63;;;;;;;;;;5021071;28;20064;-72
2023/07/10 10:07:14;;;;;;;5.45;3.22;;;;;;;;;;5019733;28;20051;-72
2023/07/10 10:09:39;;;;;;;8.77;3.00;;;;;;;;;;5028133;28;20060;-72
2023/07/10 10:12:20;;;;;;;4.45;2.47;;;;;;;;;;5025639;28;20048;-72
2023/07/10 10:14:54;;;;;;;4.67;2.90;;;;;;;;;;5023602;28;20045;-71
2023/07/10 10:17:24;;;;;;;5.47;3.08;;;;;;;;;;5015661;28;20276;-72
2023/07/10 10:19:56;;;;;;;7.07;3.38;;;;;;;;;;5010179;28;20243;-70
2023/07/10 10:22:27;;;;;;;5.68;2.88;;;;;;;;;;5024547;28;20049;-69
2023/07/10 10:24:52;;;;;;;7.35;3.35;;;;;;;;;;5026046;28;20123;-69
2023/07/10 10:27:52;;;;;;;10.82;3.38;;;;;;;;;;5025859;28;20054;-70
2023/07/10 10:30:21;;;;;;;5.90;2.97;;;;;;;;;;5028202;28;20304;-73
2023/07/10 10:32:54;;;;;;;9.48;3.30;;;;;;;;;;5012522;28;20099;-71
2023/07/10 10:35:49;;;;;;;4.90;3.30;;;;;;;;;;5032633;28;20057;-71
2023/07/10 10:38:44;;;;;;;6.93;2.92;;;;;;;;;;5032128;28;20059;-71
2023/07/10 10:41:20;;;;;;;3.92;2.65;;;;;;;;;;5035220;28;20037;-69
2023/07/10 10:44:10;;;;;;;5.70;2.60;;;;;;;;;;5035642;28;20118;-70
2023/07/10 10:46:56;;;;;;;6.13;2.72;;;;;;;;;;5036691;28;20048;-71
2023/07/10 10:49:41;;;;;;;7.93;2.75;;;;;;;;;;5040091;28;20053;-73
2023/07/10 10:52:40;;;;;;;8.70;3.40;;;;;;;;;;5026569;28;20056;-71
2023/07/10 10:55:29;;;;;;;6.32;2.80;;;;;;;;;;5024701;28;20053;-70
2023/07/10 10:58:04;;;;;;;3.78;2.53;;;;;;;;;;5026407;28;20063;-72
2023/07/10 11:01:03;;;;;;;5.95;2.50;;;;;;;;;;5026078;28;20475;-71
2023/07/10 11:03:52;;;;;;;4.07;2.63;;;;;;;;;;5039169;28;20137;-73
2023/07/10 11:06:36;;;;;;;6.07;2.83;;;;;;;;;;5026796;28;20064;-72
2023/07/10 11:09:11;;;;;;;3.38;2.78;;;;;;;;;;5000496;28;20403;-71
2023/07/10 11:11:39;;;;;;;5.40;2.42;;;;;;;;;;5035163;28;20572;-72
2023/07/10 11:14:06;;;;;;;3.05;2.35;;;;;;;;;;5035453;28;20095;-72
2023/07/10 11:16:33;;;;;;;5.03;2.30;;;;;;;;;;5035138;28;20817;-73
2023/07/10 11:19:03;;;;;;;4.32;2.35;;;;;;;;;;5037707;28;20482;-73
2023/07/10 11:21:32;;;;;;;3.55;2.38;;;;;;;;;;5033461;28;20072;-72
2023/07/10 11:24:13;;;;;;;2.97;2.40;;;;;;;;;;5025876;28;20056;-72
2023/07/10 11:26:38;;;;;;;2.63;2.30;;;;;;;;;;5030066;28;20060;-71
2023/07/10 11:29:27;;;;;;;5.90;2.50;;;;;;;;;;5030302;28;20291;-71
2023/07/10 11:31:55;;;;;;;3.05;2.10;;;;;;;;;;5028604;28;20076;-73
2023/07/10 11:34:30;;;;;;;2.95;2.35;;;;;;;;;;5036139;28;20175;-74
2023/07/10 11:36:57;;;;;;;4.80;2.28;;;;;;;;;;5033754;28;20054;-72
2023/07/10 11:39:30;;;;;;;6.43;2.50;;;;;;;;;;5028340;28;20128;-73
2023/07/10 11:41:56;;;;;;;7.32;2.75;;;;;;;;;;5024181;28;20135;-73
2023/07/10 11:44:27;;;;;;;4.47;2.70;;;;;;;;;;5021809;28;20049;-72
2023/07/10 11:47:00;;;;;;;7.03;2.90;;;;;;;;;;5029070;28;20045;-72
2023/07/10 11:49:35;;;;;;;4.82;2.47;;;;;;;;;;5021242;28;21536;-73
2023/07/10 11:52:09;;;;;;;4.50;2.28;;;;;;;;;;5022330;28;20045;-71
2023/07/10 11:54:39;;;;;;;4.43;2.70;;;;;;;;;;5026099;28;20048;-72
2023/07/10 11:57:19;;;;;;;3.50;2.22;;;;;;;;;;5022243;28;20485;-73
2023/07/10 12:00:05;;;;;;;6.60;2.90;;;;;;;;;;5022359;28;20123;-72
2023/07/10 12:02:46;;;;;;;5.82;2.60;;;;;;;;;;5023918;28;20068;-72
2023/07/10 12:05:15;;;;;;;5.57;2.47;;;;;;;;;;5017775;28;20049;-71
2023/07/10 12:08:01;;;;;;;5.65;2.50;;;;;;;;;;5018482;28;20137;-70
2023/07/10 12:10:30;;;;;;;5.10;2.83;;;;;;;;;;5018719;28;20583;-70
2023/07/10 12:12:56;;;;;;;3.72;2.53;;;;;;;;;;5021301;28;20128;-70
2023/07/10 12:15:23;;;;;;;3.50;2.72;;;;;;;;;;5021523;28;20212;-71
2023/07/10 12:17:52;;;;;;;2.85;2.22;;;;;;;;;;5019425;28;20040;-73
2023/07/10 12:20:38;;;;;;;2.85;2.55;;;;;;;;;;5026457;28;20501;-72
2023/07/10 12:23:12;;;;;;;6.70;2.45;;;;;;;;;;5022198;28;20056;-71
2023/07/10 12:25:37;;;;;;;3.20;2.50;;;;;;;;;;5024756;28;20048;-71
2023/07/10 12:28:12;;;;;;;3.95;2.25;;;;;;;;;;5032369;28;20134;-71
2023/07/10 12:30:38;;;;;;;3.88;2.55;;;;;;;;;;5019088;28;20068;-72
2023/07/10 12:33:37;;;;;;;4.13;2.00;;;;;;;;;;5022153;28;20601;-72
2023/07/10 12:36:25;;;;;;;4.18;2.20;;;;;;;;;;5022446;28;20036;-72
2023/07/10 12:38:56;;;;;;;3.00;2.00;;;;;;;;;;5023944;28;20091;-70
2023/07/10 12:41:22;;;;;;;3.40;2.17;;;;;;;;;;5030897;28;20051;-72
2023/07/10 12:43:52;;;;;;;3.20;2.30;;;;;;;;;;5026763;28;20033;-73
2023/07/10 12:46:26;;;;;;;8.40;2.23;;;;;;;;;;5022586;28;20063;-73
2023/07/10 12:49:06;;;;;;;4.18;2.17;;;;;;;;;;5021465;28;20049;-73
2023/07/10 12:51:36;;;;;;;2.38;2.17;;;;;;;;;;5040209;28;20060;-72
2023/07/10 12:54:03;;;;;;;4.25;2.00;;;;;;;;;;5016647;28;20569;-70
2023/07/10 12:56:34;;;;;;;2.20;2.00;;;;;;;;;;5020259;28;20048;-71
2023/07/10 12:59:28;;;;;;;4.35;2.05;;;;;;;;;;5019138;28;20049;-73
2023/07/10 13:02:03;;;;;;;3.38;1.80;;;;;;;;;;5010267;28;20068;-71
2023/07/10 13:04:31;;;;;;;2.40;1.98;;;;;;;;;;5018408;28;20041;-72
2023/07/10 13:07:15;;;;;;;2.90;1.95;;;;;;;;;;5017623;28;20091;-71
2023/07/10 13:09:40;;;;;;;3.88;2.15;;;;;;;;;;5032041;28;20486;-72
2023/07/10 13:12:20;;;;;;;3.20;2.30;;;;;;;;;;5017678;28;20568;-72
2023/07/10 13:14:47;;;;;;;3.08;1.80;;;;;;;;;;5022480;28;20060;-71
2023/07/10 13:17:13;;;;;;;3.25;2.22;;;;;;;;;;5021402;28;20156;-72
2023/07/10 13:19:39;;;;;;;3.88;2.08;;;;;;;;;;5024313;28;20138;-71
2023/07/10 13:22:10;;;;;;;2.67;2.22;;;;;;;;;;5024931;28;20193;-71
2023/07/10 13:24:36;;;;;;;3.58;2.00;;;;;;;;;;5023551;28;20049;-71
2023/07/10 13:27:02;;;;;;;5.45;2.00;;;;;;;;;;5025954;28;20049;-71
2023/07/10 13:29:27;;;;;;;3.10;2.10;;;;;;;;;;5024206;28;20049;-70
2023/07/10 13:31:53;;;;;;;6.50;3.17;;;;;;;;;;5025097;28;20049;-70
2023/07/10 13:34:18;;;;;;;2.22;2.00;;;;;;;;;;5026210;28;20041;-69
2023/07/10 13:36:44;;;;;;;4.05;2.00;;;;;;;;;;5026490;28;20940;-71
2023/07/10 13:39:16;;;;;;;9.27;2.53;;;;;;;;;;5025650;28;20036;-72
2023/07/10 13:41:42;;;;;;;3.95;2.33;;;;;;;;;;5021401;28;20056;-71
2023/07/10 13:44:07;;;;;;;3.70;2.28;;;;;;;;;;5023721;28;20053;-70
2023/07/10 13:46:33;;;;;;;3.95;2.22;;;;;;;;;;5018260;28;20041;-70
2023/07/10 13:49:04;;;;;;;2.60;2.15;;;;;;;;;;5018439;28;20048;-70
2023/07/10 13:51:31;;;;;;;3.95;2.40;;;;;;;;;;5017602;28;20076;-71
2023/07/10 13:53:58;;;;;;;2.70;2.33;;;;;;;;;;5026955;28;20033;-72
2023/07/10 13:56:37;;;;;;;3.78;2.33;;;;;;;;;;5022851;28;20044;-71
2023/07/10 13:59:04;;;;;;;3.22;2.15;;;;;;;;;;5004945;28;20463;-73
2023/07/10 14:01:32;;;;;;;5.18;2.45;;;;;;;;;;5016235;28;20114;-74
2023/07/10 14:03:57;;;;;;;4.53;2.75;;;;;;;;;;5024779;28;20339;-71
2023/07/10 14:06:39;;;;;;;3.55;2.45;;;;;;;;;;5029593;28;20049;-71
2023/07/10 14:09:17;;;;;;;5.35;2.50;;;;;;;;;;5016645;28;20048;-71
2023/07/10 14:11:43;;;;;;;2.95;2.20;;;;;;;;;;5017036;28;20524;-72
2023/07/10 14:14:18;;;;;;;3.13;2.47;;;;;;;;;;5016846;28;20686;-72
2023/07/10 14:16:45;;;;;;;4.60;2.30;;;;;;;;;;5017212;28;20052;-73
2023/07/10 14:19:15;;;;;;;8.63;2.60;;;;;;;;;;5016978;28;20064;-74
2023/07/10 14:21:41;;;;;;;5.00;2.15;;;;;;;;;;5015747;28;20407;-70
2023/07/10 14:24:06;;;;;;;4.35;2.25;;;;;;;;;;5020045;28;20049;-69
2023/07/10 14:26:32;;;;;;;4.43;2.30;;;;;;;;;;5019804;28;20574;-70
2023/07/10 14:28:58;;;;;;;4.13;2.30;;;;;;;;;;5018556;28;20041;-69
2023/07/10 14:31:25;;;;;;;4.50;1.83;;;;;;;;;;5017720;28;20435;-69
2023/07/10 14:33:51;;;;;;;3.30;2.10;;;;;;;;;;5019411;28;20041;-70
2023/07/10 14:36:21;;;;;;;2.22;2.10;;;;;;;;;;5030090;28;20068;-69
2023/07/10 14:38:47;;;;;;;2.15;1.80;;;;;;;;;;5026183;28;20050;-69
2023/07/10 14:41:18;;;;;;;4.53;2.08;;;;;;;;;;5017600;28;20510;-69
2023/07/10 14:43:44;;;;;;;3.97;2.15;;;;;;;;;;5019585;28;20088;-71
2023/07/10 14:46:26;;;;;;;3.45;1.90;;;;;;;;;;5023773;28;20141;-70
2023/07/10 14:48:51;;;;;;;4.47;2.00;;;;;;;;;;5026246;28;20045;-70
2023/07/10 14:51:17;;;;;;;3.60;2.08;;;;;;;;;;5017063;28;20605;-73
2023/07/10 14:53:42;;;;;;;3.42;2.00;;;;;;;;;;5011015;28;20139;-73
2023/07/10 14:56:15;;;;;;;2.55;2.22;;;;;;;;;;5018395;28;20063;-73